Aérodrome :
LOGIN :

S'inscrire | Disclaimer

   EN    FR    IT 

 










Légende :    VFR   VFR Marginal   IFR   IFR Intensif   IFR Très Intensif
Visi : 
Plafond : 
>= 8 km
>= 3000ft
5 à 8 km
1000 à 3000 ft
1500m à 5 km
500 à 1000 ft
800 à 1500m
200 à 500 ft
< 800m
< 200 ft
Symboles :   Orages  Brouillard  Fortes neiges  Fortes précipitations  Vent > 20 kt
SIGMETs :   Divers  Orages  Givrage  Turbulence  Onde Orograph.  Cendres Volcan.







- Altitude de l'aérodrome : 1470 ft
- Code IATA : KLU


LOWK - Klagenfurt

DERNIER METAR :
  • 202120Z VRB02KT 9999 FEW040 SCT050 BKN070 15/11 Q1020 NOSIG

METARs EXPIRÉS :
  • 202050Z 06003KT 030V100 9999 FEW040 SCT050 BKN070 16/10 Q1020 NOSIG
  • 202020Z 04004KT 010V070 9999 FEW040 SCT050 BKN070 16/10 Q1020 NOSIG
  • 201950Z VRB03KT 9999 FEW040 SCT050 BKN070 16/10 Q1020 NOSIG
  • 201920Z 05003KT 020V090 9999 FEW040 SCT050 FEW050TCU BKN070 16/09 Q1020 NOSIG
  • 201850Z VRB02KT 9999 FEW040 SCT050 BKN100 15/10 Q1020 NOSIG

TAF TAF LOWK
Valide du 20 à 18h jusqu'au 21 à 18h UTC


201715Z 2018/2118 VRB02KT 9999 FEW040 SCT100 TX20/2115Z TN12/2104Z
PROB40
TEMPO 2018/2021 VRB08KT SHRA SCT045 FEW050CB BKN080
PROB30
TEMPO 2102/2105 VRB02KT 4000 BR FEW002 BKN016
TEMPO 2110/2118 09007KT SHRA SCT040 FEW050TCU BKN070
Pas de NOTAMs connus pour ce terrain.



MET'MAP, la Météo Aéronautique d'un coup d'oeil ! - Copyright ORBIFLY Décembre 2007 - Disclaimer

ORBIFLY MET'MAP TEAM :

Programmation & Développement : Alexandra Zaïnal
Conception & Développement : Baudouin d'Aumeries
Co-Programmation & Développement : Marc-Olivier Méhu
Soutien technique & logistique : Manuel Goepfert

Contact : metmap@orbifly.com




SOURCES & CREDITS :

   NOAA